createdAt,value
2018-03-15T00:01:25.947Z,91.95
2018-03-15T00:03:53.608Z,92.08
2018-03-15T00:06:21.220Z,92.36
2018-03-15T00:08:48.793Z,92.46
2018-03-15T00:11:16.590Z,92.57
2018-03-15T00:13:44.217Z,93.11
2018-03-15T00:16:11.777Z,93.09
2018-03-15T00:18:39.349Z,93.39
2018-03-15T00:21:07.031Z,93.14
2018-03-15T00:23:34.699Z,93.18
2018-03-15T00:26:02.257Z,93.73
2018-03-15T00:28:30.024Z,93.96
2018-03-15T00:30:57.606Z,94.04
2018-03-15T00:33:25.352Z,94.42
2018-03-15T00:35:52.975Z,94.49
2018-03-15T00:38:20.571Z,94.09
2018-03-15T00:40:48.329Z,93.96
2018-03-15T00:43:16.172Z,94.15
2018-03-15T00:45:43.749Z,94.03
2018-03-15T00:48:11.532Z,93.94
2018-03-15T00:50:39.385Z,93.44
2018-03-15T00:53:07.110Z,93.24
2018-03-15T00:55:34.786Z,92.93
2018-03-15T00:58:02.405Z,92.76
2018-03-15T01:00:30.002Z,93.06
2018-03-15T01:02:57.587Z,93.18
2018-03-15T01:05:25.202Z,93.26
2018-03-15T01:07:52.828Z,92.87
2018-03-15T01:10:20.492Z,93.06
2018-03-15T01:12:48.154Z,92.86
2018-03-15T01:15:15.729Z,92.80
2018-03-15T01:17:43.380Z,93.00
2018-03-15T01:20:10.994Z,92.68
2018-03-15T01:22:38.639Z,93.19
2018-03-15T01:25:06.215Z,93.36
2018-03-15T01:27:33.832Z,93.33
2018-03-15T01:30:01.576Z,93.01
2018-03-15T01:32:29.160Z,93.28
2018-03-15T01:34:56.752Z,93.85
2018-03-15T01:37:24.402Z,94.33
2018-03-15T01:39:51.975Z,94.95
2018-03-15T01:42:19.672Z,95.08
2018-03-15T01:44:47.239Z,95.96
2018-03-15T01:47:15.004Z,96.57
2018-03-15T01:49:42.624Z,96.67
2018-03-15T01:52:10.204Z,96.45
2018-03-15T01:54:37.792Z,95.80
2018-03-15T01:57:05.449Z,95.34
2018-03-15T01:59:33.124Z,94.69
2018-03-15T02:02:00.953Z,95.02
2018-03-15T02:04:28.638Z,94.97
2018-03-15T02:06:56.314Z,95.48
2018-03-15T02:09:24.030Z,96.06
2018-03-15T02:11:51.840Z,95.72
2018-03-15T02:14:19.420Z,94.70
2018-03-15T02:16:46.984Z,95.36
2018-03-15T02:19:14.815Z,94.61
2018-03-15T02:21:42.479Z,94.62
2018-03-15T02:24:10.150Z,94.54
2018-03-15T02:26:37.814Z,94.60
2018-03-15T02:29:05.386Z,94.44
2018-03-15T02:31:33.133Z,93.83
2018-03-15T02:34:00.744Z,93.75
2018-03-15T02:36:28.324Z,93.55
2018-03-15T02:38:55.906Z,93.59
2018-03-15T02:41:23.518Z,92.87
2018-03-15T02:43:51.251Z,92.21
2018-03-15T02:46:18.892Z,92.22
2018-03-15T02:48:46.500Z,92.38
2018-03-15T02:51:14.224Z,92.52
2018-03-15T02:53:41.879Z,92.77
2018-03-15T02:56:09.486Z,92.60
2018-03-15T02:58:37.211Z,91.66
2018-03-15T03:01:04.792Z,91.09
2018-03-15T03:03:32.545Z,90.21
2018-03-15T03:06:00.115Z,90.71
2018-03-15T03:08:27.858Z,90.44
2018-03-15T03:10:55.478Z,90.75
2018-03-15T03:13:23.198Z,91.01
2018-03-15T03:15:50.845Z,90.34
2018-03-15T03:18:18.462Z,90.65
2018-03-15T03:20:46.036Z,91.25
2018-03-15T03:23:13.609Z,91.67
2018-03-15T03:25:41.225Z,91.79
2018-03-15T03:28:08.797Z,92.40
2018-03-15T03:30:36.393Z,93.04
2018-03-15T03:33:04.014Z,92.22
2018-03-15T03:35:31.589Z,92.59
2018-03-15T03:37:59.173Z,92.93
2018-03-15T03:40:26.855Z,93.11
2018-03-15T03:42:54.436Z,93.13
2018-03-15T03:45:22.175Z,93.45
2018-03-15T03:47:49.841Z,93.78
2018-03-15T03:50:17.409Z,93.86
2018-03-15T03:52:44.976Z,94.43
2018-03-15T03:55:12.592Z,94.05
2018-03-15T03:57:40.172Z,94.39
2018-03-15T04:00:07.972Z,94.67
2018-03-15T04:02:35.569Z,94.77
2018-03-15T04:05:03.278Z,95.03
2018-03-15T04:07:30.888Z,94.89
2018-03-15T04:09:58.501Z,94.94
2018-03-15T04:12:26.071Z,95.67
2018-03-15T04:14:53.636Z,95.91
2018-03-15T04:17:21.386Z,96.14
2018-03-15T04:19:48.961Z,96.53
2018-03-15T04:22:16.529Z,96.41
2018-03-15T04:24:44.131Z,96.44
2018-03-15T04:27:11.708Z,96.21
2018-03-15T04:29:39.288Z,96.60
2018-03-15T04:32:06.907Z,96.56
2018-03-15T04:34:34.617Z,96.82
2018-03-15T04:37:02.270Z,96.92
2018-03-15T04:39:30.141Z,97.25
2018-03-15T04:41:57.716Z,97.46
2018-03-15T04:44:25.471Z,97.64
2018-03-15T04:46:53.133Z,98.03
2018-03-15T04:49:20.798Z,98.26
2018-03-15T04:51:48.364Z,99.41
2018-03-15T04:54:16.328Z,98.39
2018-03-15T04:56:43.972Z,92.52
2018-03-15T04:59:11.633Z,84.42
2018-03-15T05:01:39.236Z,80.96
2018-03-15T05:04:06.815Z,76.54
2018-03-15T05:06:34.388Z,73.74
2018-03-15T05:09:02.012Z,73.76
2018-03-15T05:11:29.745Z,74.83
2018-03-15T05:13:57.314Z,75.21
2018-03-15T05:16:24.933Z,74.32
2018-03-15T05:18:52.499Z,74.50
2018-03-15T05:21:20.080Z,76.65
2018-03-15T05:23:47.698Z,78.82
2018-03-15T05:26:15.267Z,79.99
2018-03-15T05:28:42.874Z,80.08
2018-03-15T05:31:10.529Z,80.45
2018-03-15T05:33:38.197Z,82.01
2018-03-15T05:36:05.772Z,82.79
2018-03-15T05:38:33.389Z,82.26
2018-03-15T05:41:01.189Z,82.83
2018-03-15T05:43:28.853Z,83.11
2018-03-15T05:45:56.603Z,82.93
2018-03-15T05:48:24.195Z,82.50
2018-03-15T05:50:51.840Z,81.96
2018-03-15T05:53:19.432Z,80.32
2018-03-15T05:55:47.165Z,79.43
2018-03-15T05:58:14.826Z,79.15
2018-03-15T06:00:42.535Z,77.78
2018-03-15T06:03:10.154Z,75.46
2018-03-15T06:05:37.828Z,74.35
2018-03-15T06:08:05.415Z,72.37
2018-03-15T06:10:33.357Z,66.79
2018-03-15T06:13:00.942Z,62.05
2018-03-15T06:15:28.670Z,56.41
2018-03-15T06:17:56.332Z,52.16
2018-03-15T06:20:24.005Z,50.32
2018-03-15T06:22:51.713Z,44.67
2018-03-15T06:25:19.534Z,45.06
2018-03-15T06:27:47.198Z,44.10
2018-03-15T06:30:14.926Z,43.26
2018-03-15T06:32:42.893Z,42.17
2018-03-15T06:35:10.582Z,41.97
2018-03-15T06:37:38.200Z,42.85
2018-03-15T06:40:05.904Z,44.55
2018-03-15T06:42:33.710Z,45.80
2018-03-15T06:45:01.555Z,47.54
2018-03-15T06:47:29.432Z,48.45
2018-03-15T06:49:57.389Z,49.93
2018-03-15T06:52:24.998Z,50.02
2018-03-15T06:54:52.720Z,48.93
2018-03-15T06:57:20.309Z,48.70
2018-03-15T06:59:48.007Z,46.85
2018-03-15T07:02:15.918Z,43.36
2018-03-15T07:04:43.501Z,43.32
2018-03-15T07:07:12.248Z,38.43
2018-03-15T07:09:39.912Z,39.23
2018-03-15T07:12:07.564Z,38.40
2018-03-15T07:14:35.159Z,35.73
2018-03-15T07:17:02.890Z,34.48
2018-03-15T07:19:30.551Z,34.79
2018-03-15T07:21:58.214Z,34.18
2018-03-15T07:24:25.951Z,32.55
2018-03-15T07:26:53.741Z,32.71
2018-03-15T07:29:21.466Z,33.49
2018-03-15T07:31:49.039Z,32.85
2018-03-15T07:34:16.617Z,33.64
2018-03-15T07:36:44.390Z,32.58
2018-03-15T07:39:12.054Z,32.44
2018-03-15T07:41:39.628Z,31.89
2018-03-15T07:44:07.236Z,32.20
2018-03-15T07:46:34.822Z,30.21
2018-03-15T07:49:02.498Z,31.71
2018-03-15T07:51:30.162Z,33.43
2018-03-15T07:53:57.735Z,34.53
2018-03-15T07:56:25.495Z,33.76
2018-03-15T07:58:53.802Z,36.23
2018-03-15T08:01:21.381Z,34.09
2018-03-15T08:03:48.943Z,34.12
2018-03-15T08:06:16.740Z,32.93
2018-03-15T08:08:44.326Z,35.97
2018-03-15T08:11:11.900Z,35.09
2018-03-15T08:13:39.591Z,33.66
2018-03-15T08:16:07.174Z,31.77
2018-03-15T08:18:35.070Z,31.79
2018-03-15T08:21:02.683Z,32.29
2018-03-15T08:23:30.292Z,31.28
2018-03-15T08:25:58.054Z,33.29
2018-03-15T08:28:25.720Z,32.89
2018-03-15T08:30:53.302Z,32.48
2018-03-15T08:33:20.954Z,34.78
2018-03-15T08:35:48.738Z,32.53
2018-03-15T08:38:16.306Z,32.08
2018-03-15T08:40:44.032Z,34.55
2018-03-15T08:43:11.640Z,31.57
2018-03-15T08:45:39.228Z,31.94
2018-03-15T08:48:06.813Z,33.08
2018-03-15T08:50:34.416Z,32.71
2018-03-15T08:53:01.986Z,34.55
2018-03-15T08:55:29.597Z,35.61
2018-03-15T08:57:57.213Z,34.51
2018-03-15T09:00:24.795Z,35.42
2018-03-15T09:02:52.382Z,33.94
2018-03-15T09:05:20.232Z,32.50
2018-03-15T09:07:47.703Z,35.91
2018-03-15T09:10:15.359Z,35.10
2018-03-15T09:12:42.966Z,34.83
2018-03-15T09:15:10.690Z,33.63
2018-03-15T09:17:38.351Z,34.10
2018-03-15T09:20:05.975Z,35.51
2018-03-15T09:22:33.551Z,35.83
2018-03-15T09:25:01.387Z,34.52
2018-03-15T09:27:29.207Z,34.93
2018-03-15T09:29:56.801Z,35.41
2018-03-15T09:32:24.419Z,34.45
2018-03-15T09:34:52.076Z,34.04
2018-03-15T09:37:19.687Z,32.03
2018-03-15T09:39:47.291Z,33.57
2018-03-15T09:42:14.928Z,32.14
2018-03-15T09:44:42.518Z,32.50
2018-03-15T09:47:10.111Z,31.72
2018-03-15T09:49:37.800Z,33.09
2018-03-15T09:52:05.414Z,30.61
2018-03-15T09:54:33.002Z,31.61
2018-03-15T09:57:00.662Z,34.44
2018-03-15T09:59:28.238Z,34.35
2018-03-15T10:01:55.863Z,29.58
2018-03-15T10:04:23.479Z,30.86
2018-03-15T10:06:51.079Z,30.71
2018-03-15T10:09:18.683Z,30.83
2018-03-15T10:11:46.283Z,31.64
2018-03-15T10:14:13.997Z,32.56
2018-03-15T10:16:41.608Z,31.32
2018-03-15T10:19:09.258Z,29.78
2018-03-15T10:21:36.877Z,29.90
2018-03-15T10:24:04.538Z,29.80
2018-03-15T10:26:32.181Z,32.14
2018-03-15T10:28:59.787Z,34.80
2018-03-15T10:31:27.364Z,36.54
2018-03-15T10:33:55.065Z,35.94
2018-03-15T10:36:22.697Z,33.54
2018-03-15T10:38:50.298Z,33.03
2018-03-15T10:41:17.937Z,33.10
2018-03-15T10:43:45.522Z,32.72
2018-03-15T10:46:13.173Z,33.19
2018-03-15T10:48:40.899Z,30.19
2018-03-15T10:51:08.598Z,30.57
2018-03-15T10:53:36.206Z,29.56
2018-03-15T10:56:03.840Z,27.29
2018-03-15T10:58:31.431Z,27.29
2018-03-15T11:01:04.673Z,30.10
2018-03-15T11:03:37.865Z,27.85
2018-03-15T11:06:10.558Z,29.87
2018-03-15T11:08:38.549Z,29.13
2018-03-15T11:11:06.283Z,28.94
2018-03-15T11:13:33.933Z,29.40
2018-03-15T11:16:01.574Z,28.21
2018-03-15T11:18:29.158Z,29.22
2018-03-15T11:20:56.793Z,30.40
2018-03-15T11:23:24.456Z,31.01
2018-03-15T11:25:52.240Z,30.75
2018-03-15T11:28:19.819Z,30.24
2018-03-15T11:30:47.431Z,28.61
2018-03-15T11:33:15.035Z,28.53
2018-03-15T11:35:42.647Z,27.15
2018-03-15T11:38:10.289Z,25.39
2018-03-15T11:40:37.903Z,24.28
2018-03-15T11:43:05.507Z,25.20
2018-03-15T11:45:33.134Z,26.28
2018-03-15T11:48:00.808Z,27.35
2018-03-15T11:50:28.427Z,25.57
2018-03-15T11:52:56.101Z,25.12
2018-03-15T11:55:23.775Z,28.49
2018-03-15T11:57:51.386Z,29.92
2018-03-15T12:00:19.237Z,30.47
2018-03-15T12:02:46.839Z,30.34
2018-03-15T12:05:14.448Z,30.69
2018-03-15T12:07:42.106Z,30.31
2018-03-15T12:10:09.706Z,29.79
2018-03-15T12:12:37.424Z,30.03
2018-03-15T12:15:05.273Z,32.89
2018-03-15T12:17:32.952Z,34.77
2018-03-15T12:20:00.521Z,35.32
2018-03-15T12:22:28.113Z,32.77
2018-03-15T12:24:55.690Z,29.79
2018-03-15T12:27:23.394Z,30.92
2018-03-15T12:29:51.003Z,31.98
2018-03-15T12:32:18.726Z,35.57
2018-03-15T12:34:46.386Z,35.44
2018-03-15T12:37:13.976Z,37.39
2018-03-15T12:39:41.546Z,38.55
2018-03-15T12:42:09.359Z,37.34
2018-03-15T12:44:37.006Z,38.35
2018-03-15T12:47:04.577Z,37.38
2018-03-15T12:49:32.183Z,38.51
2018-03-15T12:51:59.800Z,37.85
2018-03-15T12:54:27.474Z,38.06
2018-03-15T12:56:55.133Z,38.91
2018-03-15T12:59:22.717Z,38.56
2018-03-15T13:01:50.348Z,38.49
2018-03-15T13:04:18.114Z,39.36
2018-03-15T13:06:45.796Z,38.94
2018-03-15T13:09:13.760Z,38.08
2018-03-15T13:11:41.399Z,35.25
2018-03-15T13:14:08.965Z,32.69
2018-03-15T13:16:37.064Z,28.53
2018-03-15T13:19:04.666Z,26.03
2018-03-15T13:21:32.231Z,26.63
2018-03-15T13:23:59.813Z,27.86
2018-03-15T13:26:30.735Z,29.56
2018-03-15T13:28:58.387Z,28.50
2018-03-15T13:31:26.101Z,28.30
2018-03-15T13:33:53.715Z,28.32
2018-03-15T13:36:21.280Z,28.88
2018-03-15T13:38:48.854Z,30.27
2018-03-15T13:41:16.531Z,31.51
2018-03-15T13:43:44.111Z,34.22
2018-03-15T13:46:11.870Z,33.74
2018-03-15T13:48:39.468Z,34.78
2018-03-15T13:51:07.050Z,36.21
2018-03-15T13:53:34.650Z,37.59
2018-03-15T13:56:02.267Z,39.22
2018-03-15T13:58:30.056Z,37.34
2018-03-15T14:00:57.616Z,37.80
2018-03-15T14:03:25.218Z,37.06
2018-03-15T14:05:52.837Z,37.13
2018-03-15T14:08:20.400Z,37.60
2018-03-15T14:10:49.723Z,37.77
2018-03-15T14:13:17.469Z,38.00
2018-03-15T14:15:47.543Z,38.77
2018-03-15T14:18:15.262Z,38.73
2018-03-15T14:20:42.932Z,38.98
2018-03-15T14:23:10.582Z,38.89
2018-03-15T14:25:38.150Z,37.82
2018-03-15T14:28:05.774Z,36.83
2018-03-15T14:30:33.681Z,37.21
2018-03-15T14:33:01.350Z,37.44
2018-03-15T14:35:29.006Z,38.34
2018-03-15T14:37:56.576Z,38.60
2018-03-15T14:40:24.361Z,39.42
2018-03-15T14:42:52.096Z,40.41
2018-03-15T14:45:19.851Z,41.88
2018-03-15T14:47:47.660Z,42.38
2018-03-15T14:50:15.285Z,43.10
2018-03-15T14:52:42.875Z,43.61
2018-03-15T14:55:10.466Z,43.70
2018-03-15T14:57:38.066Z,44.04
2018-03-15T15:00:05.821Z,44.58
2018-03-15T15:02:33.404Z,44.22
2018-03-15T15:05:01.023Z,45.01
2018-03-15T15:07:28.598Z,43.74
2018-03-15T15:09:56.172Z,43.96
2018-03-15T15:12:23.784Z,44.36
2018-03-15T15:14:51.343Z,43.95
2018-03-15T15:17:18.931Z,42.76
2018-03-15T15:19:46.536Z,42.43
2018-03-15T15:22:14.284Z,42.00
2018-03-15T15:24:41.938Z,41.42
2018-03-15T15:27:09.605Z,41.85
2018-03-15T15:29:37.266Z,42.54
2018-03-15T15:32:04.834Z,43.51
2018-03-15T15:34:32.440Z,43.52
2018-03-15T15:37:00.049Z,43.82
2018-03-15T15:39:27.629Z,43.85
2018-03-15T15:41:55.447Z,43.54
2018-03-15T15:44:23.004Z,44.05
2018-03-15T15:46:50.569Z,44.52
2018-03-15T15:49:18.188Z,44.54
2018-03-15T15:51:45.820Z,45.61
2018-03-15T15:54:13.463Z,46.55
2018-03-15T15:56:41.089Z,46.99
2018-03-15T15:59:08.787Z,47.44
2018-03-15T16:01:36.468Z,48.37
2018-03-15T16:04:04.323Z,49.53
2018-03-15T16:06:31.905Z,50.12
2018-03-15T16:08:59.515Z,50.54
2018-03-15T16:11:27.128Z,51.85
2018-03-15T16:13:55.166Z,52.34
2018-03-15T16:16:22.852Z,53.26
2018-03-15T16:18:50.482Z,53.75
2018-03-15T16:21:18.074Z,54.70
2018-03-15T16:23:45.889Z,54.92
2018-03-15T16:26:13.692Z,55.84
2018-03-15T16:28:41.390Z,56.01
2018-03-15T16:31:08.978Z,56.59
2018-03-15T16:33:36.694Z,57.17
2018-03-15T16:36:04.279Z,57.80
2018-03-15T16:38:31.852Z,58.22
2018-03-15T16:40:59.862Z,59.42
2018-03-15T16:43:27.749Z,59.78
2018-03-15T16:45:55.307Z,60.16
2018-03-15T16:48:23.077Z,60.05
2018-03-15T16:50:50.738Z,60.35
2018-03-15T16:53:18.343Z,60.41
2018-03-15T16:55:45.962Z,60.01
2018-03-15T16:58:13.571Z,61.32
2018-03-15T17:00:41.181Z,62.57
2018-03-15T17:03:08.832Z,64.34
2018-03-15T17:05:36.413Z,64.62
2018-03-15T17:08:04.158Z,64.70
2018-03-15T17:10:31.832Z,65.23
2018-03-15T17:12:59.473Z,65.78
2018-03-15T17:15:27.058Z,66.14
2018-03-15T17:17:54.657Z,67.87
2018-03-15T17:20:22.274Z,67.80
2018-03-15T17:22:49.918Z,68.39
2018-03-15T17:25:17.520Z,69.02
2018-03-15T17:27:45.242Z,68.55
2018-03-15T17:30:12.827Z,68.52
2018-03-15T17:32:40.492Z,68.13
2018-03-15T17:35:08.076Z,68.83
2018-03-15T17:37:35.659Z,69.65
2018-03-15T17:40:03.348Z,70.30
2018-03-15T17:42:30.931Z,70.24
2018-03-15T17:44:58.516Z,68.77
2018-03-15T17:47:26.151Z,68.62
2018-03-15T17:49:53.731Z,70.04
2018-03-15T17:52:21.308Z,70.89
2018-03-15T17:54:49.120Z,72.35
2018-03-15T17:59:43.642Z,70.53
2018-03-15T18:02:11.286Z,70.51
2018-03-15T18:04:39.050Z,70.17
2018-03-15T18:07:06.733Z,70.10
2018-03-15T18:09:34.350Z,70.39
2018-03-15T18:12:01.935Z,70.38
2018-03-15T18:14:29.514Z,73.22
2018-03-15T18:16:57.129Z,72.74
2018-03-15T18:19:24.696Z,72.79
2018-03-15T18:21:52.486Z,72.63
2018-03-15T18:24:20.132Z,72.93
2018-03-15T18:26:47.722Z,73.77
2018-03-15T18:29:15.356Z,75.06
2018-03-15T18:31:43.097Z,74.37
2018-03-15T18:34:10.798Z,74.13
2018-03-15T18:36:38.388Z,74.44
2018-03-15T18:39:06.027Z,76.81
2018-03-15T18:41:33.611Z,76.22
2018-03-15T18:44:01.209Z,76.11
2018-03-15T18:46:28.897Z,77.53
2018-03-15T18:48:56.473Z,76.79
2018-03-15T18:51:24.409Z,77.22
2018-03-15T18:53:52.306Z,76.92
2018-03-15T18:56:19.974Z,77.17
2018-03-15T18:58:47.718Z,76.92
2018-03-15T19:01:15.508Z,77.15
2018-03-15T19:03:43.075Z,77.13
2018-03-15T19:06:10.814Z,80.60
2018-03-15T19:08:38.431Z,80.86
2018-03-15T19:11:06.048Z,81.44
2018-03-15T19:13:33.620Z,79.88
2018-03-15T19:16:01.232Z,79.66
2018-03-15T19:18:28.809Z,79.44
2018-03-15T19:20:56.376Z,78.39
2018-03-15T19:23:23.973Z,78.59
2018-03-15T19:25:51.561Z,80.24
2018-03-15T19:28:19.172Z,79.71
2018-03-15T19:30:46.811Z,79.26
2018-03-15T19:33:14.505Z,80.54
2018-03-15T19:35:42.151Z,82.07
2018-03-15T19:38:09.767Z,81.86
2018-03-15T19:40:37.484Z,80.41
2018-03-15T19:43:05.130Z,80.53
2018-03-15T19:45:32.733Z,80.68
2018-03-15T19:48:00.303Z,80.23
2018-03-15T19:50:27.879Z,80.58
2018-03-15T19:52:55.529Z,82.52
2018-03-15T19:55:23.257Z,82.81
2018-03-15T19:57:50.826Z,83.11
2018-03-15T20:00:18.530Z,83.25
2018-03-15T20:02:46.137Z,85.32
2018-03-15T20:05:13.699Z,84.29
2018-03-15T20:07:41.296Z,84.36
2018-03-15T20:10:08.861Z,84.25
2018-03-15T20:12:36.428Z,84.07
2018-03-15T20:15:04.043Z,83.69
2018-03-15T20:17:31.608Z,84.22
2018-03-15T20:19:59.172Z,85.90
2018-03-15T20:22:32.436Z,84.22
2018-03-15T20:25:00.006Z,84.48
2018-03-15T20:27:33.307Z,83.42
2018-03-15T20:30:00.886Z,84.44
2018-03-15T20:32:34.034Z,83.58
2018-03-15T20:35:01.607Z,84.40
2018-03-15T20:37:29.203Z,84.48
2018-03-15T20:40:02.251Z,85.12
2018-03-15T20:42:29.816Z,85.20
2018-03-15T20:44:57.396Z,84.59
2018-03-15T20:47:30.609Z,84.86
2018-03-15T20:49:58.184Z,84.46
2018-03-15T20:52:25.760Z,83.75
2018-03-15T20:54:53.361Z,84.27
2018-03-15T20:57:20.940Z,84.86
2018-03-15T20:59:48.679Z,85.00
2018-03-15T21:02:16.268Z,86.16
2018-03-15T21:04:43.831Z,86.25
2018-03-15T21:07:11.395Z,87.07
2018-03-15T21:09:39.000Z,87.57
2018-03-15T21:12:06.563Z,87.82
2018-03-15T21:14:34.241Z,88.00
2018-03-15T21:17:01.818Z,88.63
2018-03-15T21:19:29.372Z,88.67
2018-03-15T21:21:57.222Z,89.74
2018-03-15T21:24:24.820Z,90.50
2018-03-15T21:26:52.475Z,91.07
2018-03-15T21:29:20.025Z,91.24
2018-03-15T21:31:47.630Z,91.48
2018-03-15T21:34:15.187Z,91.92
2018-03-15T21:36:42.762Z,92.20
2018-03-15T21:39:10.366Z,92.58
2018-03-15T21:41:37.931Z,92.89
2018-03-15T21:44:05.499Z,92.23
2018-03-15T21:46:33.108Z,92.01
2018-03-15T21:49:00.828Z,92.15
2018-03-15T21:51:28.398Z,92.68
2018-03-15T21:53:56.008Z,93.00
2018-03-15T21:56:23.680Z,93.34
2018-03-15T21:58:51.244Z,94.05
2018-03-15T22:01:18.856Z,93.90
2018-03-15T22:03:46.932Z,93.76
2018-03-15T22:06:14.546Z,93.78
2018-03-15T22:08:42.213Z,93.94
2018-03-15T22:11:09.804Z,94.03
2018-03-15T22:13:37.386Z,94.56
2018-03-15T22:16:05.014Z,94.70
2018-03-15T22:18:32.657Z,94.38
2018-03-15T22:21:00.217Z,94.10
2018-03-15T22:23:27.827Z,94.42
2018-03-15T22:25:55.417Z,94.50
2018-03-15T22:28:22.981Z,94.36
2018-03-15T22:30:50.590Z,94.55
2018-03-15T22:33:18.197Z,94.33
2018-03-15T22:35:45.853Z,94.30
2018-03-15T22:38:13.478Z,94.14
2018-03-15T22:40:41.032Z,94.10
2018-03-15T22:43:08.595Z,94.19
2018-03-15T22:45:36.198Z,94.21
2018-03-15T22:48:03.768Z,93.75
2018-03-15T22:50:31.346Z,93.57
2018-03-15T22:52:58.953Z,93.55
2018-03-15T22:55:26.554Z,93.82
2018-03-15T22:57:54.216Z,94.17
2018-03-15T23:00:21.828Z,94.82
2018-03-15T23:02:49.435Z,95.17
2018-03-15T23:05:17.280Z,95.13
2018-03-15T23:07:44.884Z,95.06
2018-03-15T23:10:12.442Z,95.22
2018-03-15T23:12:40.036Z,95.49
2018-03-15T23:15:07.656Z,95.69
2018-03-15T23:17:35.367Z,95.96
2018-03-15T23:20:02.934Z,96.20
2018-03-15T23:22:30.630Z,96.72
2018-03-15T23:24:58.214Z,96.81
2018-03-15T23:27:25.775Z,96.70
2018-03-15T23:29:53.371Z,97.08
2018-03-15T23:32:20.936Z,97.12
2018-03-15T23:34:48.523Z,96.98
2018-03-15T23:37:16.150Z,96.66
2018-03-15T23:39:43.719Z,96.83
2018-03-15T23:42:11.284Z,97.04
2018-03-15T23:44:38.889Z,96.95
2018-03-15T23:47:06.483Z,96.67
2018-03-15T23:49:34.060Z,96.64
2018-03-15T23:52:01.756Z,96.66
2018-03-15T23:54:29.418Z,96.76
2018-03-15T23:56:56.997Z,97.23
2018-03-15T23:59:24.761Z,97.50
